This is the latest recevied weather packets stored in our database for station/object AB8KN-2. If no packets are shown the sender has not sent any weather packets the latest 10 day(s).
| Time | Temp. | Humidity | Pressure | Rain* | Wind** | Luminosity | Snow |
|---|---|---|---|---|---|---|---|
| 1778024417 | 15.56° C | 95% | 1007.6 hPa | 0 mm | - | 6 W/m² | - |
| 1778023817 | 15.56° C | 94% | 1007.8 hPa | 0.25 mm | - | 8 W/m² | - |
| 1778023217 | 15.56° C | 94% | 1007.8 hPa | 0.51 mm | - | 11 W/m² | - |
| 1778022615 | 15.56° C | 94% | 1007.9 hPa | 0.76 mm | - | 34 W/m² | - |
| 1778019017 | 15.56° C | 93% | 1008.2 hPa | 3.81 mm | - | 36 W/m² | - |
| 1778018417 | 15.56° C | 93% | 1008.1 hPa | 3.3 mm | - | 40 W/m² | - |
| 1778015417 | 21.11° C | 59% | 1007 hPa | 0 mm | - | 61 W/m² | - |
| 1778013658 | 21.11° C | 59% | 1007.5 hPa | 0 mm | - | 114 W/m² | - |
| 1778003438 | 21.11° C | 58% | 1008.5 hPa | 0 mm | - | 94 W/m² | - |
| 1777999216 | 22.78° C | 54% | 1009 hPa | 0 mm | - | 557 W/m² | - |
| 1777993817 | 20° C | 62% | 1009.3 hPa | 0 mm | - | 609 W/m² | - |
| 1777992038 | 18.89° C | 68% | 1009.1 hPa | 0 mm | - | 554 W/m² | - |
| 1777983617 | 15.56° C | 78% | 1007.9 hPa | 0 mm | - | 65 W/m² | - |
| 1777982458 | 15.56° C | 78% | 1007 hPa | 0 mm | - | 21 W/m² | - |
| 1777980618 | 15.56° C | 77% | 1007.4 hPa | 0 mm | - | 16 W/m² | - |
| 1777976416 | 16.67° C | 69% | 1007.5 hPa | 0 mm | - | 0 W/m² | - |
| 1777975217 | 16.67° C | 68% | 1007.6 hPa | 0 mm | - | 0 W/m² | - |
| 1777973417 | 17.22° C | 66% | 1007.2 hPa | 0 mm | - | 0 W/m² | - |
| 1777969818 | 18.33° C | 60% | 1006.6 hPa | 0 mm | - | 0 W/m² | - |
| 1777957216 | 18.89° C | 60% | 1006.2 hPa | 0 mm | - | 0 W/m² | - |
| 1777953017 | 20° C | 58% | 1006.3 hPa | 0 mm | - | 0 W/m² | - |
| 1777948216 | 19.44° C | 63% | 1005.9 hPa | 0 mm | - | 0 W/m² | - |
| 1777944017 | 19.44° C | 61% | 1005.3 hPa | 0 mm | - | 0 W/m² | - |
| 1777938015 | 22.78° C | 48% | 1005.6 hPa | 0 mm | - | 64 W/m² | - |
| 1777936816 | 22.22° C | 50% | 1005.8 hPa | 0 mm | - | 113 W/m² | - |
* Rain latest hour (hover to see other rain measurements)
** Current wind speed in m/s (hover to see current wind gust speed)